sensor_id;sensor_type;location;lat;lon;timestamp;temperature;humidity
65462;DHT22;53236;43.666;18.444;2023-05-24T00:01:42;7.80;99.90
65462;DHT22;53236;43.666;18.444;2023-05-24T00:04:08;7.70;99.90
65462;DHT22;53236;43.666;18.444;2023-05-24T00:06:35;7.70;99.90
65462;DHT22;53236;43.666;18.444;2023-05-24T00:09:02;7.60;99.90
65462;DHT22;53236;43.666;18.444;2023-05-24T00:11:28;7.60;99.90
65462;DHT22;53236;43.666;18.444;2023-05-24T00:13:54;7.60;99.90
65462;DHT22;53236;43.666;18.444;2023-05-24T00:16:19;7.50;99.90
65462;DHT22;53236;43.666;18.444;2023-05-24T00:18:45;7.50;99.90
65462;DHT22;53236;43.666;18.444;2023-05-24T00:21:12;7.50;99.90
65462;DHT22;53236;43.666;18.444;2023-05-24T00:23:38;7.50;99.90
65462;DHT22;53236;43.666;18.444;2023-05-24T00:26:04;7.40;99.90
65462;DHT22;53236;43.666;18.444;2023-05-24T00:28:30;7.40;99.90
65462;DHT22;53236;43.666;18.444;2023-05-24T00:30:57;7.40;99.90
65462;DHT22;53236;43.666;18.444;2023-05-24T00:33:23;7.40;99.90
65462;DHT22;53236;43.666;18.444;2023-05-24T00:35:49;7.30;99.90
65462;DHT22;53236;43.666;18.444;2023-05-24T00:38:21;7.30;99.90
65462;DHT22;53236;43.666;18.444;2023-05-24T00:40:48;7.30;99.90
65462;DHT22;53236;43.666;18.444;2023-05-24T00:43:14;7.30;99.90
65462;DHT22;53236;43.666;18.444;2023-05-24T00:45:40;7.20;99.90
65462;DHT22;53236;43.666;18.444;2023-05-24T00:48:07;7.20;99.90
65462;DHT22;53236;43.666;18.444;2023-05-24T00:50:33;7.20;99.90
65462;DHT22;53236;43.666;18.444;2023-05-24T00:53:03;7.20;99.90
65462;DHT22;53236;43.666;18.444;2023-05-24T00:55:29;7.20;99.90
65462;DHT22;53236;43.666;18.444;2023-05-24T00:57:58;7.20;99.90
65462;DHT22;53236;43.666;18.444;2023-05-24T01:00:24;7.20;99.90
65462;DHT22;53236;43.666;18.444;2023-05-24T01:02:50;7.10;99.90
65462;DHT22;53236;43.666;18.444;2023-05-24T01:05:20;7.10;99.90
65462;DHT22;53236;43.666;18.444;2023-05-24T01:07:52;7.10;99.90
65462;DHT22;53236;43.666;18.444;2023-05-24T01:18:12;7.00;99.90
65462;DHT22;53236;43.666;18.444;2023-05-24T01:20:40;7.00;99.90
65462;DHT22;53236;43.666;18.444;2023-05-24T01:23:43;7.00;99.90
65462;DHT22;53236;43.666;18.444;2023-05-24T01:28:59;6.90;99.90
65462;DHT22;53236;43.666;18.444;2023-05-24T01:31:27;6.90;99.90
65462;DHT22;53236;43.666;18.444;2023-05-24T01:33:52;6.90;99.90
65462;DHT22;53236;43.666;18.444;2023-05-24T01:36:18;6.90;99.90
65462;DHT22;53236;43.666;18.444;2023-05-24T01:38:44;6.80;99.90
65462;DHT22;53236;43.666;18.444;2023-05-24T01:43:45;6.80;99.90
65462;DHT22;53236;43.666;18.444;2023-05-24T01:46:35;6.80;99.90
65462;DHT22;53236;43.666;18.444;2023-05-24T01:49:37;6.80;99.90
65462;DHT22;53236;43.666;18.444;2023-05-24T01:52:11;6.70;99.90
65462;DHT22;53236;43.666;18.444;2023-05-24T01:54:39;6.70;99.90
65462;DHT22;53236;43.666;18.444;2023-05-24T01:57:08;6.60;99.90
65462;DHT22;53236;43.666;18.444;2023-05-24T01:59:35;6.60;99.90
65462;DHT22;53236;43.666;18.444;2023-05-24T02:02:02;6.50;99.90
65462;DHT22;53236;43.666;18.444;2023-05-24T02:04:28;6.50;99.90
65462;DHT22;53236;43.666;18.444;2023-05-24T02:06:53;6.40;99.90
65462;DHT22;53236;43.666;18.444;2023-05-24T02:09:19;6.30;99.90
65462;DHT22;53236;43.666;18.444;2023-05-24T02:11:45;6.30;99.90
65462;DHT22;53236;43.666;18.444;2023-05-24T02:14:11;6.30;99.90
65462;DHT22;53236;43.666;18.444;2023-05-24T02:16:37;6.30;99.90
65462;DHT22;53236;43.666;18.444;2023-05-24T02:19:09;6.30;99.90
65462;DHT22;53236;43.666;18.444;2023-05-24T02:21:35;6.30;99.90
65462;DHT22;53236;43.666;18.444;2023-05-24T02:24:01;6.30;99.90
65462;DHT22;53236;43.666;18.444;2023-05-24T02:26:27;6.30;99.90
65462;DHT22;53236;43.666;18.444;2023-05-24T02:28:53;6.20;99.90
65462;DHT22;53236;43.666;18.444;2023-05-24T02:31:18;6.20;99.90
65462;DHT22;53236;43.666;18.444;2023-05-24T02:33:44;6.20;99.90
65462;DHT22;53236;43.666;18.444;2023-05-24T02:36:10;6.20;99.90
65462;DHT22;53236;43.666;18.444;2023-05-24T02:38:36;6.20;99.90
65462;DHT22;53236;43.666;18.444;2023-05-24T02:41:02;6.10;99.90
65462;DHT22;53236;43.666;18.444;2023-05-24T02:43:28;6.10;99.90
65462;DHT22;53236;43.666;18.444;2023-05-24T02:45:53;6.10;99.90
65462;DHT22;53236;43.666;18.444;2023-05-24T02:48:19;6.00;99.90
65462;DHT22;53236;43.666;18.444;2023-05-24T02:50:45;6.00;99.90
65462;DHT22;53236;43.666;18.444;2023-05-24T02:53:11;6.00;99.90
65462;DHT22;53236;43.666;18.444;2023-05-24T02:55:37;6.00;99.90
65462;DHT22;53236;43.666;18.444;2023-05-24T02:58:03;6.10;99.90
65462;DHT22;53236;43.666;18.444;2023-05-24T03:00:28;6.10;99.90
65462;DHT22;53236;43.666;18.444;2023-05-24T03:02:55;6.10;99.90
65462;DHT22;53236;43.666;18.444;2023-05-24T03:05:22;6.10;99.90
65462;DHT22;53236;43.666;18.444;2023-05-24T03:07:47;6.00;99.90
65462;DHT22;53236;43.666;18.444;2023-05-24T03:10:15;6.00;99.90
65462;DHT22;53236;43.666;18.444;2023-05-24T03:12:41;6.00;99.90
65462;DHT22;53236;43.666;18.444;2023-05-24T03:15:07;5.90;99.90
65462;DHT22;53236;43.666;18.444;2023-05-24T03:17:33;5.90;99.90
65462;DHT22;53236;43.666;18.444;2023-05-24T03:19:58;5.90;99.90
65462;DHT22;53236;43.666;18.444;2023-05-24T03:22:25;5.90;99.90
65462;DHT22;53236;43.666;18.444;2023-05-24T03:24:51;5.90;99.90
65462;DHT22;53236;43.666;18.444;2023-05-24T03:27:17;5.90;99.90
65462;DHT22;53236;43.666;18.444;2023-05-24T03:29:42;6.00;99.90
65462;DHT22;53236;43.666;18.444;2023-05-24T03:32:08;6.00;99.90
65462;DHT22;53236;43.666;18.444;2023-05-24T03:34:34;6.10;99.90
65462;DHT22;53236;43.666;18.444;2023-05-24T03:37:00;6.10;99.90
65462;DHT22;53236;43.666;18.444;2023-05-24T03:39:25;6.20;99.90
65462;DHT22;53236;43.666;18.444;2023-05-24T03:41:51;6.20;99.90
65462;DHT22;53236;43.666;18.444;2023-05-24T03:44:17;6.30;99.90
65462;DHT22;53236;43.666;18.444;2023-05-24T03:46:42;6.30;99.90
65462;DHT22;53236;43.666;18.444;2023-05-24T03:49:08;6.20;99.90
65462;DHT22;53236;43.666;18.444;2023-05-24T03:51:34;6.30;99.90
65462;DHT22;53236;43.666;18.444;2023-05-24T03:54:00;6.50;99.90
65462;DHT22;53236;43.666;18.444;2023-05-24T03:56:26;6.60;99.90
65462;DHT22;53236;43.666;18.444;2023-05-24T03:58:52;6.70;99.90
65462;DHT22;53236;43.666;18.444;2023-05-24T04:01:18;6.80;99.90
65462;DHT22;53236;43.666;18.444;2023-05-24T04:03:45;6.90;99.90
65462;DHT22;53236;43.666;18.444;2023-05-24T04:06:12;7.10;99.90
65462;DHT22;53236;43.666;18.444;2023-05-24T04:08:38;7.20;99.90
65462;DHT22;53236;43.666;18.444;2023-05-24T04:11:03;7.20;99.90
65462;DHT22;53236;43.666;18.444;2023-05-24T04:13:29;7.40;99.90
65462;DHT22;53236;43.666;18.444;2023-05-24T04:15:55;7.50;99.90
65462;DHT22;53236;43.666;18.444;2023-05-24T04:18:21;7.60;99.90
65462;DHT22;53236;43.666;18.444;2023-05-24T04:20:47;7.80;99.90
65462;DHT22;53236;43.666;18.444;2023-05-24T04:23:12;7.90;99.90
65462;DHT22;53236;43.666;18.444;2023-05-24T04:25:38;8.10;99.90
65462;DHT22;53236;43.666;18.444;2023-05-24T04:28:04;8.40;99.90
65462;DHT22;53236;43.666;18.444;2023-05-24T04:30:31;8.60;99.90
65462;DHT22;53236;43.666;18.444;2023-05-24T04:32:57;8.80;99.90
65462;DHT22;53236;43.666;18.444;2023-05-24T04:35:23;9.00;99.90
65462;DHT22;53236;43.666;18.444;2023-05-24T04:37:50;9.20;99.90
65462;DHT22;53236;43.666;18.444;2023-05-24T04:40:16;9.30;99.90
65462;DHT22;53236;43.666;18.444;2023-05-24T04:42:45;9.30;99.90
65462;DHT22;53236;43.666;18.444;2023-05-24T04:45:11;9.30;99.90
65462;DHT22;53236;43.666;18.444;2023-05-24T04:47:37;9.40;99.90
65462;DHT22;53236;43.666;18.444;2023-05-24T04:50:03;9.60;99.90
65462;DHT22;53236;43.666;18.444;2023-05-24T04:52:29;9.90;99.90
65462;DHT22;53236;43.666;18.444;2023-05-24T04:54:55;10.50;99.90
65462;DHT22;53236;43.666;18.444;2023-05-24T04:57:22;11.10;99.90
65462;DHT22;53236;43.666;18.444;2023-05-24T04:59:48;11.60;99.90
65462;DHT22;53236;43.666;18.444;2023-05-24T05:02:14;12.00;99.90
65462;DHT22;53236;43.666;18.444;2023-05-24T05:04:40;12.40;99.90
65462;DHT22;53236;43.666;18.444;2023-05-24T05:07:06;13.20;99.90
65462;DHT22;53236;43.666;18.444;2023-05-24T05:09:32;13.80;99.90
65462;DHT22;53236;43.666;18.444;2023-05-24T05:11:58;14.00;99.90
65462;DHT22;53236;43.666;18.444;2023-05-24T05:14:24;14.80;99.90
65462;DHT22;53236;43.666;18.444;2023-05-24T05:16:50;16.10;99.70
65462;DHT22;53236;43.666;18.444;2023-05-24T05:19:15;17.40;95.50
65462;DHT22;53236;43.666;18.444;2023-05-24T05:21:41;18.60;79.90
65462;DHT22;53236;43.666;18.444;2023-05-24T05:24:07;19.30;74.50
65462;DHT22;53236;43.666;18.444;2023-05-24T05:26:33;20.10;71.70
65462;DHT22;53236;43.666;18.444;2023-05-24T05:29:00;21.00;67.20
65462;DHT22;53236;43.666;18.444;2023-05-24T05:31:25;21.30;65.60
65462;DHT22;53236;43.666;18.444;2023-05-24T05:33:51;21.10;65.00
65462;DHT22;53236;43.666;18.444;2023-05-24T05:36:17;21.20;63.50
65462;DHT22;53236;43.666;18.444;2023-05-24T05:38:43;21.50;62.10
65462;DHT22;53236;43.666;18.444;2023-05-24T05:41:09;22.00;63.40
65462;DHT22;53236;43.666;18.444;2023-05-24T05:43:35;22.60;62.10
65462;DHT22;53236;43.666;18.444;2023-05-24T05:46:01;23.10;60.00
65462;DHT22;53236;43.666;18.444;2023-05-24T05:48:26;23.40;58.80
65462;DHT22;53236;43.666;18.444;2023-05-24T05:50:52;23.60;57.80
65462;DHT22;53236;43.666;18.444;2023-05-24T05:53:18;24.30;56.40
65462;DHT22;53236;43.666;18.444;2023-05-24T05:55:43;24.60;56.80
65462;DHT22;53236;43.666;18.444;2023-05-24T05:58:09;24.50;57.20
65462;DHT22;53236;43.666;18.444;2023-05-24T06:00:36;24.70;56.30
65462;DHT22;53236;43.666;18.444;2023-05-24T06:03:02;24.90;55.60
65462;DHT22;53236;43.666;18.444;2023-05-24T06:05:28;25.00;55.30
65462;DHT22;53236;43.666;18.444;2023-05-24T06:07:54;25.30;55.10
65462;DHT22;53236;43.666;18.444;2023-05-24T06:10:19;25.80;55.80
65462;DHT22;53236;43.666;18.444;2023-05-24T06:12:45;27.00;53.20
65462;DHT22;53236;43.666;18.444;2023-05-24T06:15:11;27.70;51.50
65462;DHT22;53236;43.666;18.444;2023-05-24T06:17:38;28.60;50.40
65462;DHT22;53236;43.666;18.444;2023-05-24T06:20:05;29.50;49.20
65462;DHT22;53236;43.666;18.444;2023-05-24T06:22:36;29.30;48.10
65462;DHT22;53236;43.666;18.444;2023-05-24T06:25:03;29.70;49.00
65462;DHT22;53236;43.666;18.444;2023-05-24T06:27:29;30.10;47.60
65462;DHT22;53236;43.666;18.444;2023-05-24T06:29:55;30.90;47.10
65462;DHT22;53236;43.666;18.444;2023-05-24T06:32:21;31.50;46.20
65462;DHT22;53236;43.666;18.444;2023-05-24T06:34:47;31.30;45.90
65462;DHT22;53236;43.666;18.444;2023-05-24T06:37:12;31.00;45.00
65462;DHT22;53236;43.666;18.444;2023-05-24T06:39:41;32.00;45.10
65462;DHT22;53236;43.666;18.444;2023-05-24T06:42:07;32.90;44.20
65462;DHT22;53236;43.666;18.444;2023-05-24T06:44:32;33.70;43.00
65462;DHT22;53236;43.666;18.444;2023-05-24T06:46:59;34.40;42.30
65462;DHT22;53236;43.666;18.444;2023-05-24T06:49:25;34.80;43.30
65462;DHT22;53236;43.666;18.444;2023-05-24T06:51:51;35.10;41.40
65462;DHT22;53236;43.666;18.444;2023-05-24T06:54:17;34.60;40.90
65462;DHT22;53236;43.666;18.444;2023-05-24T06:56:43;35.30;40.00
65462;DHT22;53236;43.666;18.444;2023-05-24T06:59:09;35.70;41.70
65462;DHT22;53236;43.666;18.444;2023-05-24T07:01:35;35.90;39.10
65462;DHT22;53236;43.666;18.444;2023-05-24T07:04:04;35.90;39.80
65462;DHT22;53236;43.666;18.444;2023-05-24T07:06:35;36.30;39.80
65462;DHT22;53236;43.666;18.444;2023-05-24T07:09:04;37.70;38.80
65462;DHT22;53236;43.666;18.444;2023-05-24T07:11:30;37.70;38.40
65462;DHT22;53236;43.666;18.444;2023-05-24T07:13:56;37.80;38.20
65462;DHT22;53236;43.666;18.444;2023-05-24T07:16:22;37.50;38.20
65462;DHT22;53236;43.666;18.444;2023-05-24T07:18:48;37.30;39.40
65462;DHT22;53236;43.666;18.444;2023-05-24T07:21:14;37.00;39.50
65462;DHT22;53236;43.666;18.444;2023-05-24T07:23:39;36.60;38.90
65462;DHT22;53236;43.666;18.444;2023-05-24T07:26:05;36.30;39.20
65462;DHT22;53236;43.666;18.444;2023-05-24T07:28:32;36.50;38.90
65462;DHT22;53236;43.666;18.444;2023-05-24T07:30:57;35.90;41.40
65462;DHT22;53236;43.666;18.444;2023-05-24T07:33:23;36.30;40.70
65462;DHT22;53236;43.666;18.444;2023-05-24T07:35:49;36.50;39.70
65462;DHT22;53236;43.666;18.444;2023-05-24T07:38:18;36.70;40.80
65462;DHT22;53236;43.666;18.444;2023-05-24T07:40:44;36.40;39.70
65462;DHT22;53236;43.666;18.444;2023-05-24T07:43:09;35.90;40.00
65462;DHT22;53236;43.666;18.444;2023-05-24T07:45:36;35.60;39.80
65462;DHT22;53236;43.666;18.444;2023-05-24T07:48:01;35.80;40.00
65462;DHT22;53236;43.666;18.444;2023-05-24T07:50:27;35.90;40.80
65462;DHT22;53236;43.666;18.444;2023-05-24T07:52:57;36.20;39.50
65462;DHT22;53236;43.666;18.444;2023-05-24T07:55:22;36.90;39.60
65462;DHT22;53236;43.666;18.444;2023-05-24T07:57:48;37.90;38.70
65462;DHT22;53236;43.666;18.444;2023-05-24T08:00:14;37.90;38.90
65462;DHT22;53236;43.666;18.444;2023-05-24T08:02:43;38.40;38.50
65462;DHT22;53236;43.666;18.444;2023-05-24T08:05:14;38.00;38.40
65462;DHT22;53236;43.666;18.444;2023-05-24T08:07:39;37.60;38.40
65462;DHT22;53236;43.666;18.444;2023-05-24T08:10:09;36.60;39.10
65462;DHT22;53236;43.666;18.444;2023-05-24T08:12:38;36.50;39.20
65462;DHT22;53236;43.666;18.444;2023-05-24T08:15:04;36.50;39.20
65462;DHT22;53236;43.666;18.444;2023-05-24T08:17:30;36.90;40.00
65462;DHT22;53236;43.666;18.444;2023-05-24T08:19:56;36.80;38.90
65462;DHT22;53236;43.666;18.444;2023-05-24T08:22:22;37.10;38.80
65462;DHT22;53236;43.666;18.444;2023-05-24T08:24:48;37.20;38.90
65462;DHT22;53236;43.666;18.444;2023-05-24T08:27:13;37.10;38.80
65462;DHT22;53236;43.666;18.444;2023-05-24T08:29:39;36.60;39.50
65462;DHT22;53236;43.666;18.444;2023-05-24T08:32:05;36.70;39.00
65462;DHT22;53236;43.666;18.444;2023-05-24T08:34:35;36.70;39.00
65462;DHT22;53236;43.666;18.444;2023-05-24T08:37:02;36.90;40.20
65462;DHT22;53236;43.666;18.444;2023-05-24T08:39:28;36.60;39.40
65462;DHT22;53236;43.666;18.444;2023-05-24T08:41:54;36.90;40.00
65462;DHT22;53236;43.666;18.444;2023-05-24T08:44:21;37.80;39.30
65462;DHT22;53236;43.666;18.444;2023-05-24T08:46:48;38.40;38.60
65462;DHT22;53236;43.666;18.444;2023-05-24T08:49:15;39.20;37.40
65462;DHT22;53236;43.666;18.444;2023-05-24T08:51:43;38.60;36.30
65462;DHT22;53236;43.666;18.444;2023-05-24T08:54:10;38.60;36.90
65462;DHT22;53236;43.666;18.444;2023-05-24T08:56:39;38.80;38.20
65462;DHT22;53236;43.666;18.444;2023-05-24T08:59:07;39.80;36.30
65462;DHT22;53236;43.666;18.444;2023-05-24T09:01:33;39.50;36.50
65462;DHT22;53236;43.666;18.444;2023-05-24T09:04:03;39.20;36.30
65462;DHT22;53236;43.666;18.444;2023-05-24T09:06:30;38.70;37.00
65462;DHT22;53236;43.666;18.444;2023-05-24T09:08:58;37.50;37.90
65462;DHT22;53236;43.666;18.444;2023-05-24T09:11:26;37.40;38.50
65462;DHT22;53236;43.666;18.444;2023-05-24T09:13:54;37.40;38.50
65462;DHT22;53236;43.666;18.444;2023-05-24T09:16:20;37.00;37.40
65462;DHT22;53236;43.666;18.444;2023-05-24T09:18:46;34.70;39.80
65462;DHT22;53236;43.666;18.444;2023-05-24T09:21:12;32.50;42.00
65462;DHT22;53236;43.666;18.444;2023-05-24T09:23:40;31.90;41.30
65462;DHT22;53236;43.666;18.444;2023-05-24T09:26:07;32.00;42.30
65462;DHT22;53236;43.666;18.444;2023-05-24T09:28:33;31.30;44.20
65462;DHT22;53236;43.666;18.444;2023-05-24T09:31:01;30.00;45.70
65462;DHT22;53236;43.666;18.444;2023-05-24T09:33:29;29.00;46.90
65462;DHT22;53236;43.666;18.444;2023-05-24T09:35:57;28.20;48.30
65462;DHT22;53236;43.666;18.444;2023-05-24T09:38:23;27.60;50.20
65462;DHT22;53236;43.666;18.444;2023-05-24T09:41:04;27.40;51.00
65462;DHT22;53236;43.666;18.444;2023-05-24T09:43:31;27.20;51.60
65462;DHT22;53236;43.666;18.444;2023-05-24T09:46:02;27.10;52.10
65462;DHT22;53236;43.666;18.444;2023-05-24T09:48:28;27.10;49.60
65462;DHT22;53236;43.666;18.444;2023-05-24T09:51:01;26.80;49.40
65462;DHT22;53236;43.666;18.444;2023-05-24T09:53:28;26.90;54.50
65462;DHT22;53236;43.666;18.444;2023-05-24T09:55:54;26.50;55.80
65462;DHT22;53236;43.666;18.444;2023-05-24T09:58:21;26.80;55.40
65462;DHT22;53236;43.666;18.444;2023-05-24T10:00:47;26.40;55.70
65462;DHT22;53236;43.666;18.444;2023-05-24T10:03:13;26.60;55.20
65462;DHT22;53236;43.666;18.444;2023-05-24T10:05:45;26.70;55.10
65462;DHT22;53236;43.666;18.444;2023-05-24T10:08:12;26.70;52.70
65462;DHT22;53236;43.666;18.444;2023-05-24T10:10:39;26.60;53.80
65462;DHT22;53236;43.666;18.444;2023-05-24T10:13:06;26.40;52.40
65462;DHT22;53236;43.666;18.444;2023-05-24T10:15:32;26.10;54.00
65462;DHT22;53236;43.666;18.444;2023-05-24T10:17:57;25.50;52.20
65462;DHT22;53236;43.666;18.444;2023-05-24T10:20:26;25.20;53.60
65462;DHT22;53236;43.666;18.444;2023-05-24T10:22:59;24.60;54.70
65462;DHT22;53236;43.666;18.444;2023-05-24T10:25:28;24.30;55.60
65462;DHT22;53236;43.666;18.444;2023-05-24T10:28:00;23.90;56.90
65462;DHT22;53236;43.666;18.444;2023-05-24T10:33:00;23.20;58.50
65462;DHT22;53236;43.666;18.444;2023-05-24T10:35:27;22.90;58.00
65462;DHT22;53236;43.666;18.444;2023-05-24T10:37:53;22.80;58.60
65462;DHT22;53236;43.666;18.444;2023-05-24T10:40:21;22.40;58.50
65462;DHT22;53236;43.666;18.444;2023-05-24T10:42:50;21.90;59.20
65462;DHT22;53236;43.666;18.444;2023-05-24T10:47:48;21.30;56.50
65462;DHT22;53236;43.666;18.444;2023-05-24T10:50:18;21.10;57.60
65462;DHT22;53236;43.666;18.444;2023-05-24T10:52:44;20.90;56.50
65462;DHT22;53236;43.666;18.444;2023-05-24T10:55:10;20.90;57.10
65462;DHT22;53236;43.666;18.444;2023-05-24T10:57:38;21.00;58.10
65462;DHT22;53236;43.666;18.444;2023-05-24T11:02:50;21.00;62.10
65462;DHT22;53236;43.666;18.444;2023-05-24T11:05:17;20.70;62.00
65462;DHT22;53236;43.666;18.444;2023-05-24T11:07:43;20.60;60.00
65462;DHT22;53236;43.666;18.444;2023-05-24T11:10:13;20.50;62.20
65462;DHT22;53236;43.666;18.444;2023-05-24T11:12:42;20.40;61.90
65462;DHT22;53236;43.666;18.444;2023-05-24T11:15:10;20.40;62.20
65462;DHT22;53236;43.666;18.444;2023-05-24T11:20:34;20.60;67.70
65462;DHT22;53236;43.666;18.444;2023-05-24T11:23:04;20.70;66.50
65462;DHT22;53236;43.666;18.444;2023-05-24T11:25:34;21.00;65.70
65462;DHT22;53236;43.666;18.444;2023-05-24T11:28:02;21.40;67.30
65462;DHT22;53236;43.666;18.444;2023-05-24T11:30:31;21.80;69.00
65462;DHT22;53236;43.666;18.444;2023-05-24T11:32:57;22.20;68.60
65462;DHT22;53236;43.666;18.444;2023-05-24T11:35:25;22.40;61.10
65462;DHT22;53236;43.666;18.444;2023-05-24T11:37:53;22.50;58.90
65462;DHT22;53236;43.666;18.444;2023-05-24T11:40:19;22.10;58.90
65462;DHT22;53236;43.666;18.444;2023-05-24T11:42:45;22.40;61.70
65462;DHT22;53236;43.666;18.444;2023-05-24T11:45:14;22.30;63.70
65462;DHT22;53236;43.666;18.444;2023-05-24T11:47:42;22.20;62.30
65462;DHT22;53236;43.666;18.444;2023-05-24T11:50:08;22.10;62.40
65462;DHT22;53236;43.666;18.444;2023-05-24T11:52:39;22.30;56.20
65462;DHT22;53236;43.666;18.444;2023-05-24T11:55:05;22.40;57.40
65462;DHT22;53236;43.666;18.444;2023-05-24T11:57:36;23.00;54.90
65462;DHT22;53236;43.666;18.444;2023-05-24T12:00:05;23.40;52.10
65462;DHT22;53236;43.666;18.444;2023-05-24T12:02:35;23.60;50.90
65462;DHT22;53236;43.666;18.444;2023-05-24T12:05:06;23.80;47.60
65462;DHT22;53236;43.666;18.444;2023-05-24T12:07:34;23.90;54.30
65462;DHT22;53236;43.666;18.444;2023-05-24T12:10:01;24.00;52.70
65462;DHT22;53236;43.666;18.444;2023-05-24T12:12:29;23.70;55.70
65462;DHT22;53236;43.666;18.444;2023-05-24T12:14:55;23.60;54.90
65462;DHT22;53236;43.666;18.444;2023-05-24T12:17:21;23.80;53.20
65462;DHT22;53236;43.666;18.444;2023-05-24T12:19:50;23.90;51.50
65462;DHT22;53236;43.666;18.444;2023-05-24T12:22:16;23.60;51.00
65462;DHT22;53236;43.666;18.444;2023-05-24T12:24:42;23.50;48.20
65462;DHT22;53236;43.666;18.444;2023-05-24T12:27:08;23.50;47.10
65462;DHT22;53236;43.666;18.444;2023-05-24T12:29:39;23.60;51.50
65462;DHT22;53236;43.666;18.444;2023-05-24T12:32:06;23.50;49.10
65462;DHT22;53236;43.666;18.444;2023-05-24T12:34:36;23.50;47.90
65462;DHT22;53236;43.666;18.444;2023-05-24T12:37:02;23.50;46.40
65462;DHT22;53236;43.666;18.444;2023-05-24T12:39:29;23.60;44.20
65462;DHT22;53236;43.666;18.444;2023-05-24T12:42:00;23.60;44.40
65462;DHT22;53236;43.666;18.444;2023-05-24T12:44:33;23.70;42.70
65462;DHT22;53236;43.666;18.444;2023-05-24T12:47:01;23.70;46.60
65462;DHT22;53236;43.666;18.444;2023-05-24T12:49:26;23.70;52.30
65462;DHT22;53236;43.666;18.444;2023-05-24T12:51:53;23.60;52.30
65462;DHT22;53236;43.666;18.444;2023-05-24T12:54:24;23.50;51.80
65462;DHT22;53236;43.666;18.444;2023-05-24T12:56:51;23.80;51.80
65462;DHT22;53236;43.666;18.444;2023-05-24T12:59:18;24.00;53.60
65462;DHT22;53236;43.666;18.444;2023-05-24T13:01:44;24.30;54.40
65462;DHT22;53236;43.666;18.444;2023-05-24T13:04:15;24.20;53.60
65462;DHT22;53236;43.666;18.444;2023-05-24T13:06:42;24.10;53.50
65462;DHT22;53236;43.666;18.444;2023-05-24T13:09:08;24.50;54.90
65462;DHT22;53236;43.666;18.444;2023-05-24T13:11:34;24.50;55.60
65462;DHT22;53236;43.666;18.444;2023-05-24T13:14:02;24.60;56.20
65462;DHT22;53236;43.666;18.444;2023-05-24T13:16:27;24.50;56.20
65462;DHT22;53236;43.666;18.444;2023-05-24T13:18:53;24.40;55.20
65462;DHT22;53236;43.666;18.444;2023-05-24T13:21:20;23.90;54.90
65462;DHT22;53236;43.666;18.444;2023-05-24T13:23:46;23.70;54.40
65462;DHT22;53236;43.666;18.444;2023-05-24T13:26:12;23.60;55.70
65462;DHT22;53236;43.666;18.444;2023-05-24T13:28:38;23.30;55.40
65462;DHT22;53236;43.666;18.444;2023-05-24T13:31:04;23.20;56.50
65462;DHT22;53236;43.666;18.444;2023-05-24T13:33:32;23.20;57.00
65462;DHT22;53236;43.666;18.444;2023-05-24T13:35:58;23.10;57.60
65462;DHT22;53236;43.666;18.444;2023-05-24T13:38:24;23.10;57.30
65462;DHT22;53236;43.666;18.444;2023-05-24T13:40:50;23.10;55.50
65462;DHT22;53236;43.666;18.444;2023-05-24T13:43:17;22.90;58.00
65462;DHT22;53236;43.666;18.444;2023-05-24T13:45:43;22.90;59.10
65462;DHT22;53236;43.666;18.444;2023-05-24T13:48:16;22.70;59.70
65462;DHT22;53236;43.666;18.444;2023-05-24T13:50:42;22.40;59.40
65462;DHT22;53236;43.666;18.444;2023-05-24T13:53:08;22.30;60.40
65462;DHT22;53236;43.666;18.444;2023-05-24T13:55:35;22.40;59.80
65462;DHT22;53236;43.666;18.444;2023-05-24T13:58:03;22.50;58.20
65462;DHT22;53236;43.666;18.444;2023-05-24T14:00:32;22.70;59.30
65462;DHT22;53236;43.666;18.444;2023-05-24T14:03:00;23.00;59.20
65462;DHT22;53236;43.666;18.444;2023-05-24T14:05:26;23.20;55.40
65462;DHT22;53236;43.666;18.444;2023-05-24T14:07:54;23.30;57.80
65462;DHT22;53236;43.666;18.444;2023-05-24T14:10:20;23.60;57.70
65462;DHT22;53236;43.666;18.444;2023-05-24T14:12:46;23.70;54.40
65462;DHT22;53236;43.666;18.444;2023-05-24T14:15:11;23.90;54.50
65462;DHT22;53236;43.666;18.444;2023-05-24T14:17:37;23.80;54.80
65462;DHT22;53236;43.666;18.444;2023-05-24T14:20:03;23.80;54.20
65462;DHT22;53236;43.666;18.444;2023-05-24T14:22:29;24.00;53.50
65462;DHT22;53236;43.666;18.444;2023-05-24T14:24:55;24.20;52.70
65462;DHT22;53236;43.666;18.444;2023-05-24T14:27:21;24.30;51.80
65462;DHT22;53236;43.666;18.444;2023-05-24T14:29:46;24.00;53.80
65462;DHT22;53236;43.666;18.444;2023-05-24T14:32:12;24.20;52.70
65462;DHT22;53236;43.666;18.444;2023-05-24T14:34:41;24.20;53.20
65462;DHT22;53236;43.666;18.444;2023-05-24T14:37:06;24.00;53.00
65462;DHT22;53236;43.666;18.444;2023-05-24T14:39:32;23.80;54.30
65462;DHT22;53236;43.666;18.444;2023-05-24T14:41:58;23.50;52.70
65462;DHT22;53236;43.666;18.444;2023-05-24T14:44:24;23.30;54.20
65462;DHT22;53236;43.666;18.444;2023-05-24T14:46:50;23.10;53.90
65462;DHT22;53236;43.666;18.444;2023-05-24T14:49:16;22.60;55.40
65462;DHT22;53236;43.666;18.444;2023-05-24T14:51:43;22.70;54.00
65462;DHT22;53236;43.666;18.444;2023-05-24T14:54:10;22.60;55.00
65462;DHT22;53236;43.666;18.444;2023-05-24T14:56:36;22.50;53.30
65462;DHT22;53236;43.666;18.444;2023-05-24T14:59:02;22.20;54.10
65462;DHT22;53236;43.666;18.444;2023-05-24T15:01:28;22.30;55.00
65462;DHT22;53236;43.666;18.444;2023-05-24T15:03:54;22.40;54.10
65462;DHT22;53236;43.666;18.444;2023-05-24T15:06:19;22.10;53.50
65462;DHT22;53236;43.666;18.444;2023-05-24T15:08:45;22.00;54.70
65462;DHT22;53236;43.666;18.444;2023-05-24T15:11:11;21.90;54.00
65462;DHT22;53236;43.666;18.444;2023-05-24T15:13:37;21.70;54.30
65462;DHT22;53236;43.666;18.444;2023-05-24T15:16:03;21.40;54.80
65462;DHT22;53236;43.666;18.444;2023-05-24T15:18:30;21.10;55.30
65462;DHT22;53236;43.666;18.444;2023-05-24T15:20:56;20.70;58.20
65462;DHT22;53236;43.666;18.444;2023-05-24T15:23:22;20.60;59.70
65462;DHT22;53236;43.666;18.444;2023-05-24T15:25:48;20.40;57.90
65462;DHT22;53236;43.666;18.444;2023-05-24T15:28:15;20.20;59.10
65462;DHT22;53236;43.666;18.444;2023-05-24T15:30:45;20.10;58.70
65462;DHT22;53236;43.666;18.444;2023-05-24T15:33:12;19.90;57.90
65462;DHT22;53236;43.666;18.444;2023-05-24T15:35:38;19.80;57.80
65462;DHT22;53236;43.666;18.444;2023-05-24T15:38:04;19.60;57.60
65462;DHT22;53236;43.666;18.444;2023-05-24T15:40:30;19.60;60.30
65462;DHT22;53236;43.666;18.444;2023-05-24T15:42:56;19.60;59.40